Lawtell, Louisiana
Current Conditions -  °F | °C
As of 2:53 AM on Sunday 26 Oct 2014 (Local Time) from KLFT Reporting Station
Clear Clear  
Wind Chill: 58°   Ceiling: Unl
Heat Index: 58°   Visibility: 8mi
Dew Point: 57°   Wind: 0mph
Humidity: 97%   Direction: NA
Pressure: 30.06"   Gusts: NA
Location:  30.52°N, 92.19°W
Report Text: KLFT 260753Z AUTO 00000KT 8SM CLR 14/14 A3006 RMK AO2 SLP179 T01440139
Loading
Personal Weather Stations






























Interactive Weather Map
Tropical Storm Tracking
New forecast layout! Learn more

10-Day Weather Forecast

Advertisements
Track Severe Weather on mobile